POGODA: Poland

Lotnisko: Gdansk-Rebiechowo

METAR KOD: EPGD


METAR: EPGD 290030Z 26005KT 220V280 CAVOK 11/10 Q1016


BLOK
Pogoda METAR
290030Z
Dzien: 29, Godzina: 00:30 UTC.
26005KT
Wiatr z kierunku 260, o predkosci 9 km/h
220V280
Wiatr zmienny pomiedzy 220 i 280
CAVOK
Widzialnosc pow. 10 km, brak chmur pon. 1500 m., brak CB, brak opadow, burz i innych
11/10
Temperatura: powietrze 11°C, punkt rosy 10°C . Wilgotnosc wzgledna 91 %
Q1016
Cisnienie: 1016 hPa

Pogoda na innym lotnisku

Pogoda Gdansk-Rebiechowo WEATHER Poland  
Pogoda Katowice WEATHER Poland  
Pogoda Krakow WEATHER Poland  
Pogoda Poznan WEATHER Poland  
Pogoda Rzeszow-Jasionka WEATHER Poland  
Pogoda Szczecin WEATHER Poland  
Pogoda Warszawa-Okecie WEATHER Poland  
Pogoda Wroclaw Ii WEATHER Poland  

Pogoda w inny kraju

Strona startowa

(C) by GREGOR 2007
Ogłoszenia Towarzyskie